Time;durP1;ratioP1;P1;durP2;ratioP2;P2;SDS_P1;SDS_P2;PMS_P1;PMS_P2;Temp;Humidity;BMP_temperature;BMP_pressure;BME280_temperature;BME280_humidity;BME280_pressure;Samples;Min_cycle;Max_cycle;Signal;HPM_P1;HPM_P2
2021/11/09 00:00:56;;;;;;;27.52;6.20;;;;;;;5.65;100.00;102598.38;5013650;28;20041;-74
2021/11/09 00:03:21;;;;;;;27.58;6.00;;;;;;;5.64;100.00;102593.94;5024030;28;20384;-73
2021/11/09 00:05:52;;;;;;;22.55;5.40;;;;;;;5.59;100.00;102585.81;5013304;28;20029;-72
2021/11/09 00:08:21;;;;;;;20.52;5.47;;;;;;;5.57;100.00;102595.25;5026171;28;20108;-73
2021/11/09 00:10:47;;;;;;;29.40;6.22;;;;;;;5.60;100.00;102595.44;5024774;28;20039;-75
2021/11/09 00:13:13;;;;;;;24.80;4.88;;;;;;;5.66;100.00;102590.63;5029480;28;20470;-74
2021/11/09 00:15:39;;;;;;;29.63;6.63;;;;;;;5.67;100.00;102592.44;5033170;28;20501;-74
2021/11/09 00:18:04;;;;;;;29.02;5.70;;;;;;;5.67;100.00;102595.06;5031316;28;20072;-73
2021/11/09 00:20:32;;;;;;;27.08;5.80;;;;;;;5.67;100.00;102583.69;5012274;28;20425;-73
2021/11/09 00:22:58;;;;;;;28.80;6.07;;;;;;;5.67;100.00;102591.50;5025543;28;20030;-73
2021/11/09 00:25:25;;;;;;;36.25;5.90;;;;;;;5.66;100.00;102585.41;5038215;28;20521;-74
2021/11/09 00:27:50;;;;;;;30.92;6.35;;;;;;;5.68;100.00;102590.72;5030669;28;20512;-74
2021/11/09 00:30:19;;;;;;;26.13;5.78;;;;;;;5.65;100.00;102587.91;5027790;28;20125;-74
2021/11/09 00:32:45;;;;;;;24.92;6.38;;;;;;;5.64;100.00;102587.00;5030053;28;20030;-73
2021/11/09 00:35:13;;;;;;;24.85;6.32;;;;;;;5.61;100.00;102584.19;5016227;28;20117;-74
2021/11/09 00:37:40;;;;;;;27.35;5.43;;;;;;;5.57;100.00;102585.72;5016557;28;20053;-73
2021/11/09 00:40:08;;;;;;;32.28;5.95;;;;;;;5.55;100.00;102586.44;5016956;28;20494;-73
2021/11/09 00:42:34;;;;;;;24.45;6.18;;;;;;;5.53;100.00;102590.63;5026901;28;20033;-73
2021/11/09 00:45:00;;;;;;;20.70;5.57;;;;;;;5.50;100.00;102580.00;5022083;28;20029;-74
2021/11/09 00:47:25;;;;;;;37.70;6.55;;;;;;;5.49;100.00;102584.28;5028282;28;20029;-74
2021/11/09 00:49:51;;;;;;;29.35;6.35;;;;;;;5.48;100.00;102581.59;5017081;28;20037;-74
2021/11/09 00:52:17;;;;;;;28.55;6.03;;;;;;;5.44;100.00;102583.09;5028595;28;20029;-74
2021/11/09 00:54:42;;;;;;;25.02;6.63;;;;;;;5.40;100.00;102574.16;5020303;28;20121;-74
2021/11/09 00:57:08;;;;;;;24.42;6.22;;;;;;;5.40;100.00;102576.78;5028533;28;20026;-73
2021/11/09 00:59:33;;;;;;;19.67;6.03;;;;;;;5.37;100.00;102575.66;5030519;28;20465;-73
2021/11/09 01:01:59;;;;;;;25.98;6.65;;;;;;;5.34;100.00;102584.19;5027661;28;20030;-74
2021/11/09 01:04:25;;;;;;;27.83;7.20;;;;;;;5.35;100.00;102582.50;5021335;28;20071;-73
2021/11/09 01:06:51;;;;;;;25.27;6.07;;;;;;;5.30;100.00;102590.00;5019778;28;20476;-74
2021/11/09 01:09:16;;;;;;;27.67;6.90;;;;;;;5.27;100.00;102579.38;5015386;28;20030;-74
2021/11/09 01:11:41;;;;;;;31.27;6.05;;;;;;;5.25;100.00;102581.00;5022478;28;20041;-75
2021/11/09 01:14:07;;;;;;;32.42;7.90;;;;;;;5.24;100.00;102582.69;5017331;28;20056;-73
2021/11/09 01:16:33;;;;;;;23.58;6.97;;;;;;;5.24;100.00;102581.78;5029454;28;20108;-74
2021/11/09 01:19:04;;;;;;;28.50;8.10;;;;;;;5.23;100.00;102583.47;5027287;28;20018;-73
2021/11/09 01:21:30;;;;;;;32.08;7.78;;;;;;;5.23;100.00;102578.25;5017224;28;20461;-74
2021/11/09 01:23:56;;;;;;;32.88;8.15;;;;;;;5.24;100.00;102585.28;5012672;28;20038;-74
2021/11/09 01:26:23;;;;;;;38.55;8.57;;;;;;;5.23;100.00;102577.38;5014919;28;20041;-74
2021/11/09 01:28:51;;;;;;;30.23;9.38;;;;;;;5.22;100.00;102578.16;5033730;28;20039;-74
2021/11/09 01:31:17;;;;;;;30.60;7.97;;;;;;;5.20;100.00;102579.78;5031453;28;20101;-74
2021/11/09 01:33:43;;;;;;;26.08;8.63;;;;;;;5.19;100.00;102577.97;5024620;28;20025;-74
2021/11/09 01:36:09;;;;;;;29.42;9.15;;;;;;;5.18;100.00;102578.75;5029843;28;20108;-74
2021/11/09 01:38:36;;;;;;;24.35;8.20;;;;;;;5.16;100.00;102585.59;5029792;28;20550;-74
2021/11/09 01:41:03;;;;;;;39.72;8.75;;;;;;;5.14;100.00;102582.88;5031969;28;20030;-74
2021/11/09 01:43:29;;;;;;;32.17;9.48;;;;;;;5.14;100.00;102580.28;5018460;28;20041;-74
2021/11/09 01:45:55;;;;;;;27.17;8.32;;;;;;;5.16;100.00;102580.38;5022253;28;20065;-74
2021/11/09 01:48:21;;;;;;;28.77;9.02;;;;;;;5.14;100.00;102571.53;5021417;28;20414;-74
2021/11/09 01:50:54;;;;;;;26.13;8.40;;;;;;;5.13;100.00;102574.94;5037146;28;20025;-74
2021/11/09 01:53:20;;;;;;;29.27;9.73;;;;;;;5.13;100.00;102577.53;5022990;28;20071;-74
2021/11/09 01:55:46;;;;;;;30.60;8.15;;;;;;;5.11;100.00;102571.34;5028405;28;20121;-74
2021/11/09 01:58:13;;;;;;;27.48;8.80;;;;;;;5.10;100.00;102574.72;5036494;28;20393;-74
2021/11/09 02:00:43;;;;;;;34.28;8.70;;;;;;;5.09;100.00;102572.91;5024441;28;20029;-74
2021/11/09 02:03:09;;;;;;;27.67;8.88;;;;;;;5.07;100.00;102571.13;5021314;28;20026;-75
2021/11/09 02:05:34;;;;;;;33.80;8.93;;;;;;;5.04;100.00;102564.78;5030505;28;20053;-75
2021/11/09 02:08:02;;;;;;;30.10;9.00;;;;;;;5.02;100.00;102562.09;5033363;28;20116;-74
2021/11/09 02:10:30;;;;;;;27.50;9.13;;;;;;;5.01;100.00;102559.38;5032836;28;20057;-74
2021/11/09 02:12:56;;;;;;;35.05;8.95;;;;;;;5.00;100.00;102550.63;5019928;28;20038;-76
2021/11/09 02:15:22;;;;;;;37.50;9.20;;;;;;;5.00;100.00;102548.03;5033854;28;20037;-74
2021/11/09 02:17:49;;;;;;;30.83;9.00;;;;;;;4.99;100.00;102550.53;5033856;28;20392;-74
2021/11/09 02:20:18;;;;;;;43.75;10.68;;;;;;;4.96;100.00;102551.22;5027661;28;20018;-74
2021/11/09 02:22:43;;;;;;;35.80;9.98;;;;;;;4.95;100.00;102546.84;5019302;28;20053;-74
2021/11/09 02:25:12;;;;;;;33.55;9.73;;;;;;;4.93;100.00;102556.25;5029438;28;20088;-74
2021/11/09 02:27:38;;;;;;;35.80;10.60;;;;;;;4.94;100.00;102557.13;5026957;28;20112;-73
2021/11/09 02:30:06;;;;;;;39.83;10.25;;;;;;;4.93;100.00;102558.84;5053485;28;20059;-75
2021/11/09 02:32:31;;;;;;;31.17;9.55;;;;;;;4.91;100.00;102568.31;5023416;28;20040;-73
2021/11/09 02:34:57;;;;;;;37.00;10.95;;;;;;;4.92;100.00;102567.47;5025082;28;20037;-74
2021/11/09 02:37:22;;;;;;;42.50;11.43;;;;;;;4.89;100.00;102562.06;5032712;28;20033;-74
2021/11/09 02:39:48;;;;;;;42.35;10.23;;;;;;;4.90;100.00;102556.06;5021755;28;20025;-73
2021/11/09 02:42:17;;;;;;;50.08;12.05;;;;;;;4.88;100.00;102553.34;5028855;28;20084;-74
2021/11/09 02:44:58;;;;;;;40.65;12.35;;;;;;;4.88;100.00;102555.03;5029472;28;20017;-73
2021/11/09 02:47:27;;;;;;;35.15;12.27;;;;;;;4.89;100.00;102546.41;5022344;28;20462;-73
2021/11/09 02:50:06;;;;;;;44.15;13.68;;;;;;;4.90;100.00;102550.84;5017722;28;20026;-74
2021/11/09 02:52:33;;;;;;;47.78;13.38;;;;;;;4.89;100.00;102551.63;5049688;28;20125;-74
2021/11/09 02:55:04;;;;;;;39.05;13.23;;;;;;;4.91;100.00;102552.66;5019605;28;20025;-73
2021/11/09 02:57:56;;;;;;;44.53;14.30;;;;;;;4.92;100.00;102554.44;5020634;28;20037;-73
2021/11/09 03:00:30;;;;;;;50.38;13.95;;;;;;;4.94;100.00;102552.84;5013931;28;20450;-75
2021/11/09 03:03:09;;;;;;;50.25;16.20;;;;;;;4.96;100.00;102561.66;5015821;28;20489;-74
2021/11/09 03:08:33;;;;;;;44.25;16.85;;;;;;;4.96;100.00;102556.44;5034087;28;20049;-74
2021/11/09 03:11:00;;;;;;;42.92;16.60;;;;;;;4.99;100.00;102555.75;5028910;28;20037;-75
2021/11/09 03:13:26;;;;;;;45.95;16.38;;;;;;;5.01;100.00;102560.28;5030284;28;20025;-75
2021/11/09 03:15:55;;;;;;;39.53;17.90;;;;;;;5.02;100.00;102561.19;5022611;28;20091;-73
2021/11/09 03:18:24;;;;;;;34.63;15.93;;;;;;;4.99;100.00;102559.28;5018663;28;20018;-74
2021/11/09 03:45:11;;;;;;;42.58;16.80;;;;;;;4.94;100.00;102578.94;5028339;28;20032;-74
2021/11/09 03:47:40;;;;;;;45.70;16.83;;;;;;;4.93;100.00;102587.56;5024230;28;20060;-74
2021/11/09 03:50:08;;;;;;;44.90;16.38;;;;;;;4.91;100.00;102583.97;5031256;28;20112;-74
2021/11/09 03:52:42;;;;;;;41.08;15.73;;;;;;;4.90;100.00;102576.91;5027492;28;20084;-74
2021/11/09 03:55:11;;;;;;;38.65;16.05;;;;;;;4.89;100.00;102562.94;5029490;28;20029;-75
2021/11/09 03:57:42;;;;;;;56.28;16.75;;;;;;;4.88;100.00;102569.00;5031549;28;20076;-74
2021/11/09 04:00:16;;;;;;;40.25;15.98;;;;;;;4.87;100.00;102563.66;5017395;28;20034;-73
2021/11/09 04:05:12;;;;;;;44.15;16.42;;;;;;;4.82;100.00;102563.34;5032427;28;19959;-73
2021/11/09 04:31:10;;;;;;;58.70;20.08;;;;;;;4.91;100.00;102583.97;5040457;28;20129;-76
2021/11/09 04:50:23;;;;;;;56.47;19.65;;;;;;;4.82;100.00;102565.97;5023813;28;20055;-73
2021/11/09 05:08:45;;;;;;;;;;;;;;;4.95;100.00;102580.75;5030894;28;20397;-73
2021/11/09 05:11:10;;;;;;;55.08;16.42;;;;;;;5.02;100.00;102587.28;5035761;28;19935;-74
2021/11/09 05:13:36;;;;;;;44.38;14.77;;;;;;;5.07;100.00;102592.00;5029685;28;20488;-74
2021/11/09 05:16:01;;;;;;;50.88;16.98;;;;;;;5.12;100.00;102594.03;5038966;28;20063;-75
2021/11/09 05:18:26;;;;;;;51.67;16.08;;;;;;;5.17;100.00;102593.53;5025924;28;20074;-74
2021/11/09 05:20:52;;;;;;;52.67;16.98;;;;;;;5.24;100.00;102600.06;5019489;28;20030;-73
2021/11/09 05:23:18;;;;;;;61.78;16.35;;;;;;;5.32;100.00;102591.03;5020830;28;20106;-74
2021/11/09 05:25:44;;;;;;;57.72;16.58;;;;;;;5.40;100.00;102596.75;5017557;28;20053;-74
2021/11/09 05:28:10;;;;;;;44.22;16.02;;;;;;;5.46;100.00;102591.94;5025282;28;20032;-73
2021/11/09 05:30:39;;;;;;;50.72;15.80;;;;;;;5.53;100.00;102593.25;5029082;28;20466;-74
2021/11/09 05:33:05;;;;;;;50.38;16.90;;;;;;;5.59;100.00;102593.66;5023068;28;20072;-74
2021/11/09 05:35:30;;;;;;;54.38;16.45;;;;;;;5.66;100.00;102598.47;5023570;28;20025;-74
2021/11/09 05:37:58;;;;;;;49.67;16.58;;;;;;;5.72;100.00;102601.47;5026913;28;20021;-74
2021/11/09 05:40:37;;;;;;;49.25;16.52;;;;;;;5.77;100.00;102599.16;5032523;28;20029;-74
2021/11/09 05:43:04;;;;;;;58.53;16.25;;;;;;;5.83;100.00;102598.63;5028404;28;20120;-74
2021/11/09 05:45:30;;;;;;;54.13;16.42;;;;;;;5.90;100.00;102595.59;5030301;28;20057;-75
2021/11/09 05:47:56;;;;;;;58.92;15.23;;;;;;;5.92;100.00;102601.84;5028441;28;20033;-73
2021/11/09 05:50:23;;;;;;;51.33;15.77;;;;;;;5.97;100.00;102597.81;5032582;28;20029;-73
2021/11/09 05:52:48;;;;;;;54.75;16.20;;;;;;;6.02;100.00;102599.06;5032186;28;20041;-74
2021/11/09 05:55:13;;;;;;;50.22;17.17;;;;;;;6.06;100.00;102600.13;5028222;28;20462;-74
2021/11/09 05:57:39;;;;;;;57.55;15.38;;;;;;;6.11;100.00;102601.34;5038906;28;20029;-74
2021/11/09 06:00:06;;;;;;;46.60;15.85;;;;;;;6.14;100.00;102606.75;5030081;28;20021;-74
2021/11/09 06:02:31;;;;;;;51.88;16.27;;;;;;;6.19;100.00;102605.34;5031962;28;20442;-74
2021/11/09 06:04:57;;;;;;;55.88;17.17;;;;;;;6.24;100.00;102610.88;5030423;28;20038;-75
2021/11/09 06:07:22;;;;;;;58.17;17.98;;;;;;;6.36;100.00;102609.03;5027991;28;20025;-74
2021/11/09 06:09:48;;;;;;;55.13;18.05;;;;;;;6.42;100.00;102603.25;5031383;28;20040;-74
2021/11/09 06:12:13;;;;;;;60.22;17.92;;;;;;;6.48;100.00;102602.72;5025043;28;20111;-75
2021/11/09 06:14:38;;;;;;;62.10;18.80;;;;;;;6.54;100.00;102605.75;5026293;28;20390;-74
2021/11/09 06:17:04;;;;;;;52.17;18.13;;;;;;;6.64;100.00;102605.47;5029734;28;20024;-75
2021/11/09 06:19:29;;;;;;;51.97;17.45;;;;;;;6.70;100.00;102603.25;5021599;28;20037;-74
2021/11/09 06:21:55;;;;;;;52.55;16.10;;;;;;;6.73;100.00;102610.38;5022567;28;20034;-73
2021/11/09 06:24:22;;;;;;;53.85;15.35;;;;;;;6.74;100.00;102613.09;5026073;28;20564;-74
2021/11/09 06:26:48;;;;;;;52.25;15.63;;;;;;;6.78;100.00;102613.25;5023769;28;20029;-75
2021/11/09 06:29:14;;;;;;;53.28;17.27;;;;;;;6.81;100.00;102618.69;5025671;28;20758;-74
2021/11/09 06:31:40;;;;;;;46.78;14.55;;;;;;;6.83;100.00;102623.19;5028157;28;20040;-73
2021/11/09 06:34:05;;;;;;;58.20;17.73;;;;;;;6.86;100.00;102612.00;5034705;28;20029;-73
2021/11/09 06:36:31;;;;;;;57.35;15.88;;;;;;;6.84;100.00;102613.66;5018695;28;20044;-72
2021/11/09 06:38:57;;;;;;;50.03;16.33;;;;;;;6.88;100.00;102623.50;5026360;28;20057;-73
2021/11/09 06:41:22;;;;;;;50.50;16.50;;;;;;;6.91;100.00;102621.94;5031358;28;20032;-73
2021/11/09 06:43:47;;;;;;;55.72;16.08;;;;;;;6.94;100.00;102626.47;5028999;28;20040;-74
2021/11/09 06:46:13;;;;;;;43.65;14.18;;;;;;;6.94;100.00;102631.69;5026391;28;20121;-73
2021/11/09 06:48:39;;;;;;;58.67;16.05;;;;;;;6.95;100.00;102633.50;5024179;28;20029;-74
2021/11/09 06:51:05;;;;;;;59.13;15.80;;;;;;;6.95;100.00;102638.75;5036006;28;20390;-74
2021/11/09 06:53:30;;;;;;;54.72;15.43;;;;;;;6.94;100.00;102631.69;5032924;28;20026;-73
2021/11/09 06:55:56;;;;;;;53.20;16.20;;;;;;;6.98;100.00;102633.69;5025945;28;20528;-72
2021/11/09 06:58:21;;;;;;;51.75;17.55;;;;;;;6.98;100.00;102641.53;5027595;28;20033;-71
2021/11/09 07:00:47;;;;;;;55.35;16.67;;;;;;;7.03;100.00;102647.97;5032358;28;20029;-72
2021/11/09 07:03:13;;;;;;;53.08;17.10;;;;;;;7.05;100.00;102643.72;5024022;28;20064;-72
2021/11/09 07:05:38;;;;;;;59.15;17.55;;;;;;;7.06;100.00;102652.47;5029034;28;20029;-73
2021/11/09 07:08:04;;;;;;;60.83;18.88;;;;;;;7.06;100.00;102648.13;5030564;28;20031;-74
2021/11/09 07:10:30;;;;;;;63.90;19.33;;;;;;;7.11;100.00;102655.34;5022919;28;20029;-73
2021/11/09 07:12:55;;;;;;;59.95;20.13;;;;;;;7.13;100.00;102653.75;5026612;28;20389;-72
2021/11/09 07:15:21;;;;;;;64.85;19.23;;;;;;;7.14;100.00;102655.56;5029265;28;20060;-73
2021/11/09 07:17:48;;;;;;;60.17;19.50;;;;;;;7.13;100.00;102648.50;5034053;28;20138;-72
2021/11/09 07:20:17;;;;;;;59.70;19.10;;;;;;;7.16;100.00;102660.09;5022753;28;20470;-73
2021/11/09 07:22:43;;;;;;;62.83;20.10;;;;;;;7.17;100.00;102660.97;5029818;28;20025;-73
2021/11/09 07:25:10;;;;;;;55.17;18.75;;;;;;;7.19;100.00;102675.03;5013787;28;20713;-73
2021/11/09 07:27:36;;;;;;;66.20;19.17;;;;;;;7.23;100.00;102667.47;5018079;28;20105;-74
2021/11/09 07:30:04;;;;;;;62.60;20.63;;;;;;;7.23;100.00;102672.72;5013960;28;20026;-73
2021/11/09 07:32:30;;;;;;;50.10;19.33;;;;;;;7.32;100.00;102672.34;5025668;28;20029;-73
2021/11/09 07:34:58;;;;;;;55.38;18.15;;;;;;;7.35;100.00;102677.78;5022413;28;20116;-72
2021/11/09 07:37:25;;;;;;;53.53;18.88;;;;;;;7.38;100.00;102691.06;5023567;28;20109;-72
2021/11/09 07:39:50;;;;;;;51.83;19.77;;;;;;;7.35;100.00;102688.25;5030528;28;20389;-72
2021/11/09 07:42:17;;;;;;;53.75;18.75;;;;;;;7.37;100.00;102689.25;5033123;28;20025;-72
2021/11/09 07:44:43;;;;;;;48.50;19.42;;;;;;;7.41;100.00;102695.56;5042066;28;20021;-72
2021/11/09 07:47:08;;;;;;;63.90;18.42;;;;;;;7.43;100.00;102687.00;5032860;28;20075;-72
2021/11/09 07:49:33;;;;;;;55.83;18.08;;;;;;;7.45;100.00;102694.03;5030414;28;20035;-73
2021/11/09 07:52:00;;;;;;;49.85;17.92;;;;;;;7.51;100.00;102691.78;5022268;28;20041;-73
2021/11/09 07:54:33;;;;;;;48.72;17.98;;;;;;;7.52;100.00;102688.34;5015646;28;20429;-72
2021/11/09 07:57:05;;;;;;;47.00;17.83;;;;;;;7.57;100.00;102692.16;5029017;28;20030;-72
2021/11/09 07:59:53;;;;;;;46.63;16.70;;;;;;;7.60;100.00;102693.22;5031929;28;20418;-73
2021/11/09 08:02:32;;;;;;;48.45;18.20;;;;;;;7.64;100.00;102696.00;5036591;28;20026;-72
2021/11/09 08:05:01;;;;;;;59.67;19.00;;;;;;;7.65;100.00;102703.06;5029809;28;20444;-72
2021/11/09 08:07:31;;;;;;;59.65;18.30;;;;;;;7.68;100.00;102701.53;5028067;28;20068;-73
2021/11/09 08:09:58;;;;;;;56.78;18.83;;;;;;;7.70;100.00;102705.13;5031543;28;20025;-71
2021/11/09 08:12:23;;;;;;;49.42;18.05;;;;;;;7.78;100.00;102700.34;5033063;28;20036;-73
2021/11/09 08:14:49;;;;;;;51.85;18.77;;;;;;;7.81;100.00;102694.38;5032748;28;20021;-72
2021/11/09 08:17:15;;;;;;;49.35;18.48;;;;;;;7.83;100.00;102695.38;5025546;28;20026;-72
2021/11/09 08:19:41;;;;;;;48.50;18.27;;;;;;;7.85;100.00;102696.38;5022185;28;20033;-73
2021/11/09 08:22:07;;;;;;;49.80;16.42;;;;;;;7.88;100.00;102700.06;5029487;28;20033;-73
2021/11/09 08:24:33;;;;;;;48.38;16.60;;;;;;;7.91;100.00;102692.38;5023836;28;20075;-73
2021/11/09 08:27:04;;;;;;;46.65;17.10;;;;;;;7.99;100.00;102699.78;5044502;28;20409;-72
2021/11/09 08:29:29;;;;;;;50.17;16.98;;;;;;;8.04;100.00;102696.59;5025111;28;20052;-72
2021/11/09 08:31:56;;;;;;;51.47;15.90;;;;;;;8.09;100.00;102697.75;5027625;28;20022;-73
2021/11/09 08:34:23;;;;;;;54.70;16.20;;;;;;;8.13;100.00;102693.59;5029693;28;20049;-73
2021/11/09 08:36:49;;;;;;;56.78;16.00;;;;;;;8.13;100.00;102692.72;5028310;28;20037;-73
2021/11/09 08:39:21;;;;;;;51.13;15.73;;;;;;;8.15;100.00;102694.56;5037538;28;20021;-72
2021/11/09 08:41:51;;;;;;;53.38;17.17;;;;;;;8.21;100.00;102701.91;5026200;28;20160;-72
2021/11/09 08:44:21;;;;;;;54.20;17.30;;;;;;;8.23;100.00;102695.00;5026758;28;20108;-72
2021/11/09 08:46:57;;;;;;;52.92;16.27;;;;;;;8.28;100.00;102688.31;5037607;28;20037;-73
2021/11/09 08:49:25;;;;;;;56.15;17.00;;;;;;;8.33;100.00;102684.22;5030907;28;20053;-72
2021/11/09 08:51:52;;;;;;;47.33;15.68;;;;;;;8.39;100.00;102695.03;5035407;28;20342;-72
2021/11/09 08:54:21;;;;;;;49.70;15.40;;;;;;;8.38;100.00;102689.72;5030423;28;20022;-73
2021/11/09 09:04:44;;;;;;;47.10;14.17;;;;;;;8.52;100.00;102687.88;5029763;28;19932;-72
2021/11/09 09:07:10;;;;;;;44.63;15.32;;;;;;;8.55;100.00;102688.06;5031027;28;20034;-73
2021/11/09 09:09:35;;;;;;;53.05;15.32;;;;;;;8.62;100.00;102695.44;5028891;28;20038;-71
2021/11/09 09:12:01;;;;;;;48.28;15.40;;;;;;;8.71;100.00;102695.94;5032841;28;20392;-73
2021/11/09 09:14:27;;;;;;;47.88;15.07;;;;;;;8.69;100.00;102700.19;5029892;28;20033;-72
2021/11/09 09:16:54;;;;;;;45.95;15.75;;;;;;;8.77;100.00;102706.75;5029492;28;20056;-73
2021/11/09 09:19:22;;;;;;;39.80;14.82;;;;;;;8.85;100.00;102693.16;5032295;28;20529;-73
2021/11/09 09:21:59;;;;;;;53.05;16.40;;;;;;;8.90;100.00;102699.56;5032217;28;20026;-73
2021/11/09 09:57:00;;;;;;;46.35;13.18;;;;;;;9.59;98.53;102696.97;5031453;28;20124;-72
2021/11/09 09:59:32;;;;;;;37.35;12.63;;;;;;;9.62;98.66;102698.03;5030841;28;20025;-72
2021/11/09 10:02:11;;;;;;;36.17;12.15;;;;;;;9.71;97.66;102705.50;5032808;28;20095;-72
2021/11/09 10:04:41;;;;;;;45.20;13.25;;;;;;;9.73;97.30;102709.09;5038996;28;20041;-73
2021/11/09 10:07:07;;;;;;;44.13;12.60;;;;;;;9.72;97.87;102709.91;5036042;28;20088;-71
2021/11/09 10:09:35;;;;;;;43.92;13.13;;;;;;;9.71;98.27;102705.50;5033636;28;20061;-73
2021/11/09 10:12:26;;;;;;;35.80;12.23;;;;;;;9.78;97.87;102704.97;5034902;28;20042;-72
2021/11/09 10:14:55;;;;;;;37.13;12.25;;;;;;;9.76;97.81;102717.13;5030866;28;20112;-73
2021/11/09 10:17:27;;;;;;;44.20;13.32;;;;;;;9.78;97.63;102715.50;5024020;28;20041;-72
2021/11/09 10:19:53;;;;;;;46.20;13.35;;;;;;;9.75;97.93;102702.19;5030126;28;20469;-71
2021/11/09 10:22:24;;;;;;;41.40;12.68;;;;;;;9.74;98.21;102708.28;5024739;28;20045;-73
2021/11/09 10:25:01;;;;;;;42.10;13.38;;;;;;;9.79;98.79;102705.88;5033701;28;20050;-72
2021/11/09 10:27:29;;;;;;;48.13;13.85;;;;;;;9.86;98.21;102707.06;5035108;28;20040;-72
2021/11/09 10:29:56;;;;;;;40.85;13.52;;;;;;;9.83;98.52;102706.94;5034891;28;20061;-72
2021/11/09 10:32:29;;;;;;;42.10;13.50;;;;;;;9.78;99.18;102704.97;5034316;28;20489;-73
2021/11/09 10:34:58;;;;;;;;;;;;;;;9.87;98.95;102709.78;5029623;28;20052;-73
2021/11/09 10:37:26;;;;;;;40.55;12.15;;;;;;;9.99;98.72;102709.50;5029216;28;19936;-73
2021/11/09 10:39:55;;;;;;;37.70;12.38;;;;;;;10.00;98.62;102711.28;5033560;28;20424;-72
2021/11/09 10:42:23;;;;;;;40.65;13.80;;;;;;;10.07;98.29;102709.88;5031442;28;20080;-72
2021/11/09 10:44:53;;;;;;;37.97;12.35;;;;;;;10.05;98.75;102704.53;5033253;28;20025;-72
2021/11/09 10:47:29;;;;;;;45.20;12.13;;;;;;;10.03;99.20;102706.19;5031116;28;20130;-72
2021/11/09 10:50:01;;;;;;;30.85;12.60;;;;;;;10.00;99.63;102711.28;5030178;28;20470;-72
2021/11/09 10:52:31;;;;;;;35.85;13.30;;;;;;;9.94;100.00;102713.63;5025524;28;20486;-72
2021/11/09 10:55:15;;;;;;;42.33;12.77;;;;;;;9.94;100.00;102713.63;5030809;28;20389;-72
2021/11/09 11:06:19;;;;;;;39.28;14.57;;;;;;;9.80;100.00;102726.09;5031502;28;20452;-73
2021/11/09 11:08:54;;;;;;;43.83;14.48;;;;;;;9.76;100.00;102716.25;5028785;28;20075;-71
2021/11/09 11:11:22;;;;;;;49.45;15.70;;;;;;;9.77;100.00;102723.31;5032289;28;20388;-72
2021/11/09 11:14:12;;;;;;;49.78;15.75;;;;;;;9.75;100.00;102715.34;5034441;28;20026;-72
2021/11/09 11:17:00;;;;;;;58.42;16.27;;;;;;;9.75;100.00;102720.59;5035075;28;20052;-72
2021/11/09 11:19:31;;;;;;;39.35;14.32;;;;;;;9.72;100.00;102715.16;5037842;28;20032;-72
2021/11/09 11:22:01;;;;;;;54.83;16.70;;;;;;;9.81;100.00;102721.72;5029368;28;20037;-72
2021/11/09 11:24:26;;;;;;;57.10;15.93;;;;;;;9.73;100.00;102722.25;5024650;28;20049;-72
2021/11/09 11:26:53;;;;;;;49.78;15.32;;;;;;;9.71;100.00;102720.34;5030921;28;20542;-71
2021/11/09 11:29:21;;;;;;;43.72;14.32;;;;;;;9.63;100.00;102709.47;5029215;28;20120;-73
2021/11/09 11:31:48;;;;;;;48.33;15.70;;;;;;;9.65;100.00;102717.44;5027855;28;20025;-73
2021/11/09 11:34:16;;;;;;;38.17;14.65;;;;;;;9.69;100.00;102714.13;5032183;28;20033;-71
2021/11/09 11:36:43;;;;;;;36.08;13.40;;;;;;;9.68;100.00;102717.59;5026634;28;20034;-72
2021/11/09 11:39:09;;;;;;;42.08;14.68;;;;;;;9.65;100.00;102713.06;5052524;28;20387;-73
2021/11/09 11:41:38;;;;;;;46.75;15.05;;;;;;;9.59;100.00;102711.03;5030264;28;20075;-74
2021/11/09 11:44:08;;;;;;;37.67;13.75;;;;;;;9.61;100.00;102703.22;5030042;28;20040;-71
2021/11/09 11:46:34;;;;;;;44.33;14.57;;;;;;;9.68;100.00;102709.69;5021458;28;20040;-74
2021/11/09 11:49:00;;;;;;;41.92;14.63;;;;;;;9.70;100.00;102701.06;5023702;28;20034;-72
2021/11/09 11:51:27;;;;;;;44.40;14.93;;;;;;;9.65;100.00;102702.56;5023473;28;20139;-73
2021/11/09 11:53:55;;;;;;;49.85;16.35;;;;;;;9.60;100.00;102701.41;5035870;28;20135;-73
2021/11/09 11:56:47;;;;;;;43.08;15.80;;;;;;;9.58;100.00;102700.44;5028692;28;20040;-73
2021/11/09 11:59:18;;;;;;;48.03;15.32;;;;;;;9.65;100.00;102699.94;5022915;28;20043;-74
2021/11/09 12:01:45;;;;;;;54.03;16.65;;;;;;;9.69;100.00;102690.47;5028835;28;20041;-73
2021/11/09 12:04:31;;;;;;;44.28;15.70;;;;;;;9.63;100.00;102688.44;5028921;28;20037;-73
2021/11/09 12:06:56;;;;;;;43.58;16.63;;;;;;;9.65;100.00;102675.38;5029259;28;20184;-72
2021/11/09 12:09:32;;;;;;;48.15;16.50;;;;;;;9.67;100.00;102685.16;5033718;28;20120;-73
2021/11/09 12:11:58;;;;;;;41.10;16.83;;;;;;;9.63;100.00;102688.44;5031910;28;20028;-73
2021/11/09 12:14:24;;;;;;;44.85;16.92;;;;;;;9.67;100.00;102674.63;5027852;28;20040;-73
2021/11/09 12:16:58;;;;;;;40.92;17.40;;;;;;;9.71;100.00;102670.41;5029371;28;20112;-73
2021/11/09 12:19:35;;;;;;;44.80;16.02;;;;;;;9.75;100.00;102673.28;5028279;28;20032;-74
2021/11/09 12:22:09;;;;;;;39.70;16.13;;;;;;;9.77;100.00;102670.72;5027971;28;20037;-73
2021/11/09 12:24:55;;;;;;;41.75;16.92;;;;;;;9.76;100.00;102668.91;5027113;28;20041;-72
2021/11/09 12:27:23;;;;;;;41.83;16.10;;;;;;;9.75;100.00;102668.03;5029111;28;20033;-73
2021/11/09 12:29:51;;;;;;;45.92;16.70;;;;;;;9.78;100.00;102657.66;5028564;28;20428;-73
2021/11/09 12:32:32;;;;;;;37.80;16.63;;;;;;;9.76;100.00;102659.28;5031558;28;20029;-74
2021/11/09 12:35:01;;;;;;;37.08;17.67;;;;;;;9.72;100.00;102666.97;5033038;28;20401;-73
2021/11/09 12:37:26;;;;;;;39.55;16.30;;;;;;;9.70;100.00;102668.59;5033486;28;20186;-73
2021/11/09 12:40:28;;;;;;;46.60;17.73;;;;;;;9.68;100.00;102671.16;5030016;28;20056;-73
2021/11/09 12:43:15;;;;;;;50.53;16.95;;;;;;;9.74;100.00;102655.69;5032997;28;20026;-72
2021/11/09 12:46:03;;;;;;;43.83;16.80;;;;;;;9.65;100.00;102654.34;5030667;28;20060;-74
2021/11/09 12:48:33;;;;;;;42.05;15.88;;;;;;;9.68;100.00;102651.88;5025531;28;20048;-73
2021/11/09 12:51:21;;;;;;;44.20;17.58;;;;;;;9.68;100.00;102655.38;5032467;28;20025;-71
2021/11/09 12:53:48;;;;;;;45.03;17.02;;;;;;;9.65;100.00;102655.25;5030116;28;20029;-73
2021/11/09 12:56:33;;;;;;;44.63;17.38;;;;;;;9.59;100.00;102644.41;5032691;28;20028;-74
2021/11/09 12:59:05;;;;;;;46.08;17.60;;;;;;;9.61;100.00;102640.16;5029514;28;20045;-74
2021/11/09 13:04:24;;;;;;;57.88;19.35;;;;;;;9.54;100.00;102640.69;5029024;28;20397;-74
2021/11/09 13:09:35;;;;;;;53.05;18.25;;;;;;;9.60;100.00;102651.47;5026557;28;20041;-74
2021/11/09 13:12:05;;;;;;;61.50;20.92;;;;;;;9.62;100.00;102645.47;5027958;28;20029;-74
2021/11/09 13:14:38;;;;;;;56.83;19.88;;;;;;;9.65;100.00;102644.72;5027566;28;20392;-74
2021/11/09 13:17:34;;;;;;;56.42;20.65;;;;;;;9.63;100.00;102646.41;5029501;28;20053;-73
2021/11/09 13:23:04;;;;;;;76.18;20.90;;;;;;;9.66;100.00;102657.06;5029420;28;20064;-73
2021/11/09 13:25:32;;;;;;;56.03;19.98;;;;;;;9.62;100.00;102634.06;5036014;28;20477;-73
2021/11/09 13:28:01;;;;;;;67.45;21.00;;;;;;;9.70;100.00;102643.22;5036271;28;20028;-73
2021/11/09 13:30:26;;;;;;;65.00;19.15;;;;;;;9.71;100.00;102650.31;5036371;28;20034;-73
2021/11/09 13:32:55;;;;;;;58.65;19.77;;;;;;;9.77;100.00;102645.31;5035021;28;20141;-73
2021/11/09 13:35:23;;;;;;;65.00;19.55;;;;;;;9.76;100.00;102654.03;5031211;28;20389;-73
2021/11/09 13:37:49;;;;;;;66.35;19.08;;;;;;;9.77;100.00;102654.94;5032644;28;20025;-73
2021/11/09 13:40:17;;;;;;;58.75;19.33;;;;;;;9.81;100.00;102648.09;5031072;28;20692;-73
2021/11/09 13:42:42;;;;;;;59.63;19.10;;;;;;;9.85;100.00;102636.91;5030498;28;20025;-72